Latest Weather Observations for Coles Point

IDS60801

Issued at 2:02 pm CST Sunday 19 April 2015 (issued every 30 minutes, with the page automatically refreshed every 10 minutes)

About weather observations | Map of weather stations | Latest weather observations for SA | Other Formats
Station Details ID: 018191 Name: COLES POINT Lat: -34.37 Lon: 135.37 Height: 28.0 m
Data from the previous 72 hours. | See also: Recent months at Coles Point
Date/Time
CST
Temp
°C
App
Temp
°C
Dew
Point
Rel
Hum
%
Delta-T
°C
Wind Press
QNH
hPa
Press
MSL
hPa
Rain
since 9 am
mm
Dir
 
Spd
km/h
Gust
km/h
Spd
kts
Gust
kts
19/02:00pm 16.2 11.1 2.9 41 6.0 SE 19 28 10 15 1034.0 1034.0 0.0
19/01:30pm 16.4 12.1 5.4 48 5.2 SE 17 26 9 14 1034.1 1034.1 0.0
19/01:00pm 16.2 10.9 5.2 48 5.2 ESE 22 33 12 18 1034.2 1034.2 0.0
19/12:30pm 15.4 10.3 5.9 53 4.5 SE 22 30 12 16 1034.5 1034.5 0.0
19/12:00pm 14.2 10.8 5.8 57 4.0 ESE 13 22 7 12 1034.9 1034.9 0.0
19/11:30am 14.3 7.7 6.2 58 3.8 SE 30 37 16 20 1034.9 1034.9 0.0
19/11:00am 15.2 9.1 4.6 49 5.0 SE 26 35 14 19 1034.6 1034.6 0.0
19/10:30am 14.9 10.8 6.2 56 4.2 SE 17 28 9 15 1034.7 1034.7 0.0
19/10:00am 13.7 8.4 6.6 62 3.4 SE 24 32 13 17 1034.9 1034.9 0.0
19/09:30am 14.2 9.7 6.3 59 3.8 SE 19 24 10 13 1034.3 1034.3 0.0
19/09:00am 13.6 8.6 6.5 62 3.4 SSE 22 30 12 16 1033.9 1033.9 3.8
19/08:30am 12.9 9.8 7.4 69 2.7 SE 13 19 7 10 1033.5 1033.5 3.8
19/08:00am 10.9 9.0 7.6 80 1.6 SE 7 9 4 5 1032.8 1032.8 3.8
19/07:30am 9.6 7.1 6.7 82 1.3 SE 9 11 5 6 1032.3 1032.2 3.8
19/07:00am 8.7 6.5 6.0 83 1.2 SE 7 11 4 6 1031.7 1031.6 3.8
19/06:30am 9.2 6.2 5.8 79 1.5 SSE 11 17 6 9 1031.2 1031.1 3.8
19/06:00am 9.1 6.9 6.4 83 1.2 SSE 7 13 4 7 1030.9 1030.8 3.8
19/05:30am 9.4 7.3 6.5 82 1.3 SE 7 9 4 5 1030.3 1030.2 3.8
19/05:00am 10.7 8.2 8.1 84 1.3 SSE 11 20 6 11 1029.8 1029.7 3.8
19/04:30am 9.5 7.6 6.9 84 1.2 SSE 6 6 3 3 1029.4 1029.3 3.6
19/04:00am 9.7 7.4 7.5 86 1.0 SE 9 13 5 7 1029.1 1029.0 3.6
19/03:30am 9.5 7.8 7.4 87 1.0 ESE 6 9 3 5 1028.8 1028.7 3.6
19/03:00am 10.1 8.4 7.7 85 1.1 SSE 6 7 3 4 1028.7 1028.6 3.6
19/02:30am 10.1 8.2 7.7 85 1.1 SE 7 9 4 5 1028.7 1028.6 3.6
19/02:00am 11.2 8.5 8.8 85 1.2 SSE 13 20 7 11 1028.7 1028.6 3.6
19/01:30am 11.0 9.0 8.8 86 1.1 SE 9 13 5 7 1028.5 1028.4 3.6
19/01:00am 11.6 7.9 9.5 87 1.1 S 19 28 10 15 1028.2 1028.1 3.6
19/12:30am 12.9 8.8 7.8 71 2.5 S 19 28 10 15 1027.8 1027.7 2.6
19/12:00am 13.2 8.1 5.9 61 3.4 S 22 32 12 17 1027.6 1027.5 2.6
 
Date/Time
CST
Temp
°C
App
Temp
°C
Dew
Point
Rel
Hum
%
Delta-T
°C
Wind Press
QNH
hPa
Press
MSL
hPa
Rain
since 9 am
mm
Dir
 
Spd
km/h
Gust
km/h
Spd
kts
Gust
kts
18/11:30pm 12.3 9.4 8.2 76 2.0 SSE 13 20 7 11 1027.5 1027.4 2.6
18/11:00pm 12.8 8.8 8.1 73 2.3 SSE 19 30 10 16 1027.4 1027.3 2.6
18/10:30pm 13.2 8.7 5.9 61 3.4 S 19 26 10 14 1027.0 1026.9 2.6
18/10:00pm 13.8 8.3 5.7 58 3.8 S 24 32 13 17 1026.6 1026.5 2.6
18/09:30pm 13.8 8.9 6.9 63 3.3 S 22 32 12 17 1026.3 1026.2 2.6
18/09:00pm 14.0 8.6 7.8 66 3.1 S 26 37 14 20 1025.7 1025.6 2.6
18/08:30pm 14.4 9.2 7.2 62 3.5 S 24 37 13 20 1025.2 1025.1 2.6
18/08:00pm 14.2 9.2 7.9 66 3.1 S 24 35 13 19 1024.7 1024.6 2.6
18/07:30pm 14.0 9.5 7.1 63 3.3 S 20 30 11 16 1024.2 1024.1 2.6
18/07:00pm 14.3 9.8 7.1 62 3.5 S 20 30 11 16 1023.8 1023.7 2.6
18/06:30pm 14.3 9.6 7.6 64 3.3 S 22 32 12 17 1022.9 1022.8 2.6
18/06:00pm 14.8 10.6 8.3 65 3.3 SSW 20 28 11 15 1022.3 1022.2 2.6
18/05:30pm 15.0 9.6 8.0 63 3.5 SSW 26 33 14 18 1021.8 1021.7 2.6
18/05:00pm 15.0 11.1 10.8 76 2.2 S 22 30 12 16 1021.4 1021.3 2.6
18/04:30pm 14.6 10.1 11.4 81 1.7 S 26 39 14 21 1021.1 1021.0 2.6
18/04:00pm 14.4 9.2 11.6 83 1.5 SSW 30 41 16 22 1020.8 1020.7 2.6
18/03:30pm 14.2 10.4 13.6 96 0.3 SSW 26 35 14 19 1020.3 1020.2 2.2
18/03:00pm 14.4 10.4 14.1 98 0.2 S 28 37 15 20 1019.7 1019.6 2.0
18/02:30pm 15.1 11.3 14.8 98 0.2 S 28 41 15 22 1019.4 1019.3 2.0
18/02:00pm 15.1 11.4 14.9 99 0.1 SSW 28 37 15 20 1018.9 1018.8 1.4
18/01:30pm 15.4 12.3 14.4 94 0.6 SSW 24 32 13 17 1018.9 1018.8 1.0
18/01:00pm 17.1 14.8 14.6 85 1.4 W 20 28 11 15 1018.8 1018.7 0.6
18/12:30pm 17.4 15.7 15.7 90 1.0 W 19 26 10 14 1018.9 1018.8 0.6
18/12:00pm 16.5 14.2 14.7 89 1.0 W 20 35 11 19 1019.3 1019.2 0.6
18/11:30am 17.8 15.4 15.4 86 1.4 NW 22 30 12 16 1019.2 1019.1 0.0
18/11:00am 18.7 16.4 14.6 77 2.4 WNW 20 26 11 14 1019.2 1019.1 0.0
18/10:30am 18.6 16.1 15.1 80 2.0 WNW 22 28 12 15 1019.1 1019.0 0.0
18/10:00am 17.7 15.1 14.8 83 1.7 WNW 22 28 12 15 1019.0 1018.9 0.0
18/09:30am 16.9 14.7 14.5 86 1.4 WNW 19 22 10 12 1019.0 1018.9 0.0
18/09:00am 16.4 14.9 15.4 94 0.6 WNW 17 20 9 11 1019.0 1018.9 1.0
18/08:30am 15.9 13.7 14.3 90 0.9 WNW 19 28 10 15 1019.0 1018.9 0.6
18/08:00am 15.7 13.4 14.2 91 0.9 WNW 19 22 10 12 1018.5 1018.4 0.6
18/07:30am 15.0 12.6 13.9 93 0.6 WNW 19 28 10 15 1018.0 1018.0 0.6
18/07:00am 16.2 12.1 12.7 80 1.9 W 26 41 14 22 1017.9 1017.9 0.2
18/06:30am 16.2 12.7 12.2 77 2.2 WNW 22 33 12 18 1017.6 1017.6 0.2
18/06:00am 16.1 12.1 11.9 76 2.3 WNW 24 30 13 16 1017.4 1017.4 0.2
18/05:30am 16.1 12.5 11.9 76 2.3 WNW 22 26 12 14 1017.2 1017.2 0.2
18/05:00am 15.7 12.7 11.9 78 2.1 NW 19 24 10 13 1017.2 1017.2 0.2
18/04:30am 15.5 12.5 11.9 79 2.0 WNW 19 24 10 13 1017.1 1017.1 0.2
18/04:00am 15.1 11.9 11.1 77 2.1 WNW 19 26 10 14 1017.1 1017.1 0.2
18/03:30am 14.7 11.9 11.3 80 1.8 WNW 17 20 9 11 1017.1 1017.1 0.2
18/03:00am 14.2 12.2 11.4 83 1.5 NW 13 17 7 9 1017.2 1017.2 0.2
18/02:30am 13.5 11.7 10.7 83 1.5 WNW 11 13 6 7 1017.3 1017.3 0.2
18/02:00am 12.4 10.4 10.3 87 1.1 WNW 11 15 6 8 1017.7 1017.7 0.2
18/01:30am 11.8 10.0 9.4 85 1.2 WNW 9 11 5 6 1017.9 1017.9 0.2
18/01:00am 12.0 10.5 9.0 82 1.5 WNW 7 9 4 5 1018.1 1018.1 0.2
18/12:30am 13.6 12.1 9.3 75 2.2 W 7 13 4 7 1018.6 1018.5 0.2
18/12:00am 14.6 12.6 10.0 74 2.4 WSW 11 13 6 7 1019.1 1019.0 0.2
 
Date/Time
CST
Temp
°C
App
Temp
°C
Dew
Point
Rel
Hum
%
Delta-T
°C
Wind Press
QNH
hPa
Press
MSL
hPa
Rain
since 9 am
mm
Dir
 
Spd
km/h
Gust
km/h
Spd
kts
Gust
kts
17/11:30pm 14.2 12.0 9.4 73 2.5 WSW 11 15 6 8 1019.2 1019.1 0.2
17/11:00pm 14.3 12.0 8.9 70 2.7 WSW 11 15 6 8 1019.6 1019.5 0.2
17/10:30pm 12.8 11.2 8.9 77 2.0 WSW 7 9 4 5 1019.8 1019.7 0.2
17/10:00pm 13.6 11.9 8.2 70 2.7 SW 7 9 4 5 1019.8 1019.7 0.2
17/09:30pm 14.8 11.8 9.4 70 2.8 SW 15 20 8 11 1019.9 1019.8 0.2
17/09:00pm 14.9 12.1 9.9 72 2.6 SW 15 19 8 10 1019.8 1019.7 0.2
17/08:30pm 15.3 12.2 10.3 72 2.6 SW 17 20 9 11 1019.6 1019.5 0.2
17/08:00pm 15.4 12.8 10.6 73 2.5 SW 15 19 8 10 1019.3 1019.2 0.2
17/07:30pm 15.7 13.5 10.9 73 2.6 SW 13 19 7 10 1019.1 1019.0 0.2
17/07:00pm 15.7 14.3 10.9 73 2.6 SSW 9 13 5 7 1018.8 1018.7 0.2
17/06:30pm 15.4 14.0 10.8 74 2.4 S 9 11 5 6 1018.7 1018.6 0.2
17/06:00pm 15.3 13.0 10.5 73 2.5 SSW 13 19 7 10 1018.2 1018.2 0.2
17/05:30pm 15.9 12.6 10.9 72 2.7 SSW 19 24 10 13 1017.9 1017.9 0.2
17/05:00pm 16.9 13.7 11.2 69 3.1 SSW 19 24 10 13 1017.7 1017.7 0.2
17/04:30pm 16.8 13.4 11.1 69 3.1 SSW 20 26 11 14 1017.8 1017.8 0.2
17/04:00pm 17.1 13.9 12.0 72 2.8 SSW 20 26 11 14 1017.5 1017.5 0.2
17/03:30pm 17.2 14.1 12.1 72 2.8 SSW 20 26 11 14 1017.6 1017.6 0.2
17/03:00pm 17.1 13.9 12.0 72 2.8 SSW 20 28 11 15 1018.0 1018.0 0.2
17/02:30pm 17.4 14.6 12.5 73 2.7 SSW 19 26 10 14 1018.1 1018.1 0.2
17/02:00pm 17.5 15.3 13.2 76 2.4 SSW 17 22 9 12 1018.1 1018.1 0.2
17/01:30pm 17.0 13.8 13.1 78 2.2 SSW 22 28 12 15 1018.5 1018.4 0.2
17/01:00pm 16.7 14.0 13.0 79 2.1 SSW 19 24 10 13 1018.8 1018.7 0.0
17/12:30pm 16.9 14.7 13.2 79 2.1 SSW 17 24 9 13 1019.3 1019.2 0.0
17/12:00pm 16.9 14.9 12.8 77 2.3 SSE 15 22 8 12 1019.9 1019.8 0.0
17/11:30am 16.5 13.8 13.0 80 1.9 SE 19 24 10 13 1020.3 1020.2 0.0
17/11:00am 16.4 13.8 13.3 82 1.7 SSE 19 26 10 14 1020.7 1020.6 0.0
17/10:30am 16.0 13.6 13.7 86 1.3 SE 19 24 10 13 1020.8 1020.7 0.0
17/10:00am 15.4 13.6 13.4 88 1.1 SE 15 19 8 10 1021.1 1021.0 0.0
17/09:30am 14.7 12.1 13.2 91 0.8 SSE 19 24 10 13 1021.3 1021.2 0.0
17/09:00am 15.0 12.9 13.7 92 0.7 SE 17 24 9 13 1021.6 1021.5 13.4
17/08:30am 14.6 12.1 13.5 93 0.6 SSE 19 26 10 14 1021.7 1021.6 13.4
17/08:00am 14.7 12.5 13.4 92 0.7 SSE 17 24 9 13 1021.5 1021.4 13.4
17/07:30am 14.6 12.9 13.5 93 0.6 SSE 15 19 8 10 1021.2 1021.1 13.2
17/07:00am 14.6 12.9 13.6 94 0.6 SSE 15 20 8 11 1020.9 1020.8 13.2
17/06:30am 14.5 13.7 13.9 96 0.3 SE 11 15 6 8 1020.8 1020.7 13.2
17/06:00am 14.6 12.1 13.6 94 0.6 SSE 19 24 10 13 1020.8 1020.7 13.2
17/05:30am 14.4 12.5 14.1 98 0.2 SSE 17 20 9 11 1020.8 1020.7 13.2
17/05:00am 14.5 14.5 14.2 98 0.2 S 7 11 4 6 1021.0 1020.9 13.2
17/04:30am 14.6 13.2 14.6 100 0.0 SSE 15 20 8 11 1020.8 1020.7 13.2
17/04:00am 14.5 13.9 14.5 100 0.0 S 11 13 6 7 1021.0 1020.9 13.2
17/03:30am 14.4 14.1 14.4 100 0.0 S 9 13 5 7 1021.1 1021.0 13.2
17/03:00am 14.4 13.6 14.1 98 0.2 S 11 13 6 7 1021.2 1021.1 13.2
17/02:30am 14.7 13.2 14.1 96 0.3 SE 15 22 8 12 1021.4 1021.3 13.2
17/02:00am 14.7 13.6 14.2 97 0.3 ESE 13 17 7 9 1021.8 1021.7 13.0
17/01:30am 14.8 12.9 14.3 97 0.3 ESE 17 20 9 11 1022.2 1022.1 12.8
17/01:00am 14.8 14.1 14.3 97 0.3 ESE 11 17 6 9 1022.7 1022.6 12.8
17/12:30am 14.8 13.4 14.5 98 0.2 ESE 15 22 8 12 1022.9 1022.8 12.6
17/12:00am 14.7 13.6 14.4 98 0.2 SE 13 19 7 10 1023.2 1023.1 12.4
 
Date/Time
CST
Temp
°C
App
Temp
°C
Dew
Point
Rel
Hum
%
Delta-T
°C
Wind Press
QNH
hPa
Press
MSL
hPa
Rain
since 9 am
mm
Dir
 
Spd
km/h
Gust
km/h
Spd
kts
Gust
kts
16/11:30pm 14.7 13.6 14.4 98 0.2 ESE 13 17 7 9 1023.6 1023.5 11.8
16/11:00pm 14.8 12.6 14.3 97 0.3 ESE 19 22 10 12 1023.7 1023.6 11.6
16/10:30pm 14.8 13.1 14.6 99 0.1 ESE 17 24 9 13 1024.0 1023.9 11.2
16/10:00pm 14.7 13.7 14.7 100 0.0 SE 13 17 7 9 1024.2 1024.1 10.8
16/09:30pm 14.7 12.9 14.5 99 0.1 SSE 17 22 9 12 1024.3 1024.2 10.2
16/09:00pm 14.8 13.4 14.6 99 0.1 SSE 15 20 8 11 1024.4 1024.3 9.6
16/08:30pm 14.7 12.9 14.4 98 0.2 SSE 17 20 9 11 1024.5 1024.4 9.0
16/08:00pm 15.0 13.7 14.7 98 0.2 SSE 15 20 8 11 1024.4 1024.3 8.2
16/07:30pm 15.1 14.6 14.8 98 0.2 SE 11 13 6 7 1024.1 1024.0 6.8
16/07:00pm 15.3 14.8 14.8 97 0.3 SE 11 13 6 7 1024.0 1023.9 6.2
16/06:30pm 15.4 14.5 14.9 97 0.3 SE 13 17 7 9 1023.8 1023.7 6.0
16/06:00pm 15.6 14.7 14.8 95 0.5 SE 13 17 7 9 1023.4 1023.3 5.8
16/05:30pm 15.7 14.0 14.7 94 0.6 SE 17 22 9 12 1023.5 1023.4 5.2
16/05:00pm 15.9 14.7 15.1 95 0.5 ESE 15 19 8 10 1023.3 1023.2 4.2
16/04:30pm 15.9 14.0 15.1 95 0.5 SE 19 24 10 13 1022.9 1022.8 3.8
16/04:00pm 16.1 13.7 15.3 95 0.5 SE 22 32 12 17 1022.3 1022.2 3.8
16/03:30pm 16.6 14.3 15.6 94 0.6 SE 22 30 12 16 1022.2 1022.1 3.6
16/03:00pm 16.7 14.7 15.6 93 0.6 ESE 20 28 11 15 1022.8 1022.7 2.6
16/02:30pm 17.2 16.6 15.7 91 0.9 ESE 13 20 7 11 1023.5 1023.4 2.0

Other Formats:

Comma delimited format used in spreadsheet applications
http://www.bom.gov.au/fwo/IDS60801/IDS60801.94658.axf

JavaScript Object Notation format (JSON) in row-major order
http://www.bom.gov.au/fwo/IDS60801/IDS60801.94658.json